createdAt,value
2022-11-09T00:04:06.539Z,7.88
2022-11-09T00:09:06.897Z,7.83
2022-11-09T00:14:02.308Z,7.84
2022-11-09T00:18:56.070Z,7.91
2022-11-09T00:23:49.484Z,7.79
2022-11-09T00:28:43.159Z,7.72
2022-11-09T00:33:38.174Z,7.77
2022-11-09T00:38:31.443Z,7.69
2022-11-09T00:43:24.722Z,7.77
2022-11-09T00:48:18.055Z,7.76
2022-11-09T00:53:12.687Z,7.74
2022-11-09T00:58:06.115Z,7.59
2022-11-09T01:02:59.382Z,7.58
2022-11-09T01:07:52.644Z,7.35
2022-11-09T01:12:47.320Z,7.41
2022-11-09T01:17:40.596Z,7.58
2022-11-09T01:22:33.906Z,7.67
2022-11-09T01:27:27.406Z,7.60
2022-11-09T01:32:22.051Z,7.59
2022-11-09T01:37:15.376Z,7.49
2022-11-09T01:42:08.640Z,7.35
2022-11-09T01:47:08.222Z,7.24
2022-11-09T01:52:08.289Z,7.28
2022-11-09T01:57:10.451Z,7.34
2022-11-09T02:02:04.997Z,7.27
2022-11-09T02:07:01.030Z,7.28
2022-11-09T02:11:58.177Z,7.20
2022-11-09T02:16:51.885Z,7.22
2022-11-09T02:21:46.764Z,7.25
2022-11-09T02:26:46.799Z,7.28
2022-11-09T02:31:47.454Z,7.36
2022-11-09T02:36:40.932Z,7.36
2022-11-09T02:41:44.125Z,7.51
2022-11-09T02:46:38.564Z,7.22
2022-11-09T02:51:32.397Z,7.22
2022-11-09T02:56:25.835Z,7.40
2022-11-09T03:01:20.595Z,7.52
2022-11-09T03:06:14.387Z,7.60
2022-11-09T03:11:07.831Z,7.63
2022-11-09T03:16:06.645Z,7.59
2022-11-09T03:21:05.065Z,7.65
2022-11-09T03:25:58.425Z,7.57
2022-11-09T03:30:51.917Z,7.58
2022-11-09T03:35:45.280Z,7.69
2022-11-09T03:40:39.993Z,7.68
2022-11-09T03:45:33.359Z,7.74
2022-11-09T03:50:27.648Z,7.68
2022-11-09T03:55:21.529Z,7.68
2022-11-09T04:00:20.803Z,7.83
2022-11-09T04:05:15.284Z,7.86
2022-11-09T04:10:09.796Z,7.72
2022-11-09T04:15:03.130Z,7.79
2022-11-09T04:19:57.826Z,7.68
2022-11-09T04:24:51.157Z,7.65
2022-11-09T04:29:44.462Z,7.74
2022-11-09T04:34:37.776Z,7.83
2022-11-09T04:39:32.451Z,7.74
2022-11-09T04:44:25.850Z,7.84
2022-11-09T04:49:19.123Z,7.93
2022-11-09T04:54:12.892Z,8.04
2022-11-09T04:59:07.931Z,8.09
2022-11-09T05:04:01.292Z,8.10
2022-11-09T05:08:55.436Z,8.08
2022-11-09T05:13:49.214Z,8.16
2022-11-09T05:18:43.925Z,8.19
2022-11-09T05:23:54.725Z,8.10
2022-11-09T05:28:48.045Z,8.14
2022-11-09T05:33:42.990Z,8.21
2022-11-09T05:38:36.500Z,8.23
2022-11-09T05:43:29.847Z,8.19
2022-11-09T05:48:23.151Z,8.15
2022-11-09T05:53:17.970Z,8.20
2022-11-09T05:58:11.719Z,8.26
2022-11-09T06:03:06.610Z,8.32
2022-11-09T06:08:04.542Z,8.25
2022-11-09T06:12:59.544Z,8.29
2022-11-09T06:17:53.412Z,8.35
2022-11-09T06:22:46.720Z,8.38
2022-11-09T06:27:40.101Z,8.43
2022-11-09T06:32:34.750Z,8.51
2022-11-09T06:37:28.029Z,8.49
2022-11-09T06:42:21.438Z,8.50
2022-11-09T06:47:14.787Z,8.54
2022-11-09T06:52:09.585Z,8.56
2022-11-09T06:57:03.142Z,8.64
2022-11-09T07:02:01.041Z,8.82
2022-11-09T07:06:54.860Z,8.83
2022-11-09T07:11:51.508Z,8.98
2022-11-09T07:16:44.786Z,9.03
2022-11-09T07:21:38.093Z,8.98
2022-11-09T07:26:31.396Z,8.99
2022-11-09T07:31:29.368Z,9.12
2022-11-09T07:36:22.958Z,9.24
2022-11-09T07:41:16.294Z,9.29
2022-11-09T07:46:09.546Z,9.36
2022-11-09T07:51:04.713Z,9.49
2022-11-09T07:55:59.760Z,9.49
2022-11-09T08:00:53.444Z,9.48
2022-11-09T08:05:47.158Z,9.53
2022-11-09T08:10:42.354Z,9.55
2022-11-09T08:15:38.240Z,9.61
2022-11-09T08:20:32.383Z,9.63
2022-11-09T08:25:25.805Z,9.63
2022-11-09T08:30:22.386Z,9.74
2022-11-09T08:35:18.595Z,9.78
2022-11-09T08:40:12.352Z,9.91
2022-11-09T08:45:07.208Z,9.96
2022-11-09T08:50:02.099Z,10.05
2022-11-09T08:54:55.382Z,10.15
2022-11-09T08:59:48.815Z,10.23
2022-11-09T09:04:42.235Z,10.33
2022-11-09T09:09:38.199Z,10.39
2022-11-09T09:14:31.529Z,10.52
2022-11-09T09:19:25.144Z,10.65
2022-11-09T09:24:18.481Z,10.75
2022-11-09T09:29:13.681Z,10.89
2022-11-09T09:34:07.426Z,10.86
2022-11-09T09:39:00.714Z,10.92
2022-11-09T09:44:01.200Z,10.82
2022-11-09T09:49:04.813Z,10.80
2022-11-09T09:54:04.830Z,10.90
2022-11-09T09:59:07.220Z,11.07
2022-11-09T10:04:01.997Z,11.12
2022-11-09T10:09:11.958Z,11.20
2022-11-09T10:14:57.802Z,11.23
2022-11-09T10:20:09.482Z,11.21
2022-11-09T10:30:31.388Z,11.37
2022-11-09T10:35:32.126Z,11.38
2022-11-09T10:40:31.459Z,11.48
2022-11-09T10:45:32.836Z,11.51
2022-11-09T10:50:35.992Z,11.54
2022-11-09T10:55:30.644Z,11.61
2022-11-09T11:00:24.745Z,11.57
2022-11-09T11:05:34.620Z,11.53
2022-11-09T11:10:27.925Z,11.55
2022-11-09T11:15:25.323Z,11.57
2022-11-09T11:20:31.755Z,11.72
2022-11-09T11:25:26.466Z,11.80
2022-11-09T11:30:28.824Z,11.85
2022-11-09T11:35:35.389Z,11.90
2022-11-09T11:40:39.550Z,12.03
2022-11-09T11:45:42.493Z,12.06
2022-11-09T11:50:47.813Z,11.96
2022-11-09T11:56:02.875Z,11.92
2022-11-09T12:01:05.580Z,11.92
2022-11-09T12:06:37.170Z,11.90
2022-11-09T12:11:51.113Z,11.92
2022-11-09T12:16:57.248Z,11.95
2022-11-09T12:22:00.499Z,11.97
2022-11-09T12:27:34.933Z,11.89
2022-11-09T12:32:51.183Z,11.91
2022-11-09T12:37:53.705Z,11.87
2022-11-09T12:42:56.483Z,11.90
2022-11-09T12:47:53.072Z,11.96
2022-11-09T12:52:52.367Z,12.03
2022-11-09T12:57:49.431Z,12.08
2022-11-09T13:02:55.685Z,12.06
2022-11-09T13:07:52.833Z,12.01
2022-11-09T13:12:47.617Z,11.96
2022-11-09T13:18:02.274Z,11.93
2022-11-09T13:23:02.331Z,11.96
2022-11-09T13:27:57.752Z,11.93
2022-11-09T13:33:25.063Z,11.90
2022-11-09T13:38:20.588Z,11.89
2022-11-09T13:43:29.558Z,11.90
2022-11-09T13:48:43.619Z,11.86
2022-11-09T13:53:59.508Z,11.79
2022-11-09T13:58:56.442Z,11.74
2022-11-09T14:03:52.702Z,11.69
2022-11-09T14:08:47.079Z,11.62
2022-11-09T14:14:09.526Z,11.62
2022-11-09T14:19:19.679Z,11.61
2022-11-09T14:24:23.181Z,11.58
2022-11-09T14:29:24.069Z,11.53
2022-11-09T14:34:18.763Z,11.47
2022-11-09T14:39:26.470Z,11.46
2022-11-09T14:44:30.607Z,11.48
2022-11-09T14:49:26.932Z,11.41
2022-11-09T14:54:25.987Z,11.35
2022-11-09T14:59:29.341Z,11.30
2022-11-09T15:04:24.645Z,11.32
2022-11-09T15:09:23.273Z,11.37
2022-11-09T15:14:27.150Z,11.20
2022-11-09T15:19:33.558Z,11.21
2022-11-09T15:24:30.063Z,11.36
2022-11-09T15:29:39.615Z,11.27
2022-11-09T15:34:41.070Z,11.27
2022-11-09T15:39:34.400Z,11.22
2022-11-09T15:44:27.702Z,11.11
2022-11-09T15:49:25.040Z,11.05
2022-11-09T15:54:20.200Z,11.05
2022-11-09T15:59:21.938Z,11.06
2022-11-09T16:04:17.405Z,11.06
2022-11-09T16:09:11.493Z,11.03
2022-11-09T16:15:00.447Z,11.04
2022-11-09T16:20:02.835Z,11.11
2022-11-09T16:25:05.520Z,11.15
2022-11-09T16:30:03.497Z,11.07
2022-11-09T16:35:25.466Z,11.04
2022-11-09T16:40:19.925Z,11.05
2022-11-09T16:45:19.640Z,11.02
2022-11-09T16:50:26.450Z,11.01
2022-11-09T16:55:28.574Z,11.02
2022-11-09T17:00:48.673Z,11.00
2022-11-09T17:05:56.370Z,11.06
2022-11-09T17:11:06.852Z,11.09
2022-11-09T17:16:07.522Z,11.15
2022-11-09T17:21:04.025Z,11.21
2022-11-09T17:25:59.278Z,11.12
2022-11-09T17:30:53.546Z,10.96
2022-11-09T17:35:48.902Z,10.93
2022-11-09T17:40:51.676Z,11.12
2022-11-09T17:45:50.076Z,11.05
2022-11-09T17:50:52.212Z,11.15
2022-11-09T17:56:04.435Z,11.02
2022-11-09T18:01:04.896Z,11.09
2022-11-09T18:06:02.225Z,11.10
2022-11-09T18:11:02.378Z,11.20
2022-11-09T18:16:30.897Z,11.13
2022-11-09T18:21:41.263Z,11.13
2022-11-09T18:26:46.285Z,11.04
2022-11-09T18:31:52.145Z,10.98
2022-11-09T18:37:10.006Z,11.09
2022-11-09T18:42:30.882Z,11.08
2022-11-09T18:48:27.265Z,11.05
2022-11-09T18:53:49.613Z,11.14
2022-11-09T18:58:46.805Z,11.12
2022-11-09T19:03:40.417Z,11.08
2022-11-09T19:08:53.533Z,11.10
2022-11-09T19:13:46.948Z,11.07
2022-11-09T19:18:40.516Z,11.06
2022-11-09T19:23:38.212Z,11.10
2022-11-09T19:28:36.617Z,11.17
2022-11-09T19:33:33.291Z,11.02
2022-11-09T19:38:26.954Z,11.02
2022-11-09T19:43:24.191Z,10.97
2022-11-09T19:48:28.994Z,11.00
2022-11-09T19:53:46.291Z,11.05
2022-11-09T19:58:49.186Z,10.98
2022-11-09T20:03:53.184Z,10.98
2022-11-09T20:08:47.430Z,10.99
2022-11-09T20:13:42.571Z,11.14
2022-11-09T20:18:37.656Z,11.08
2022-11-09T20:23:43.260Z,11.06
2022-11-09T20:28:37.686Z,11.02
2022-11-09T20:33:32.952Z,10.99
2022-11-09T20:38:26.565Z,10.97
2022-11-09T20:43:24.963Z,10.93
2022-11-09T20:48:51.986Z,10.93
2022-11-09T20:53:41.539Z,10.95
2022-11-09T20:58:37.461Z,10.93
2022-11-09T21:03:31.274Z,10.94
2022-11-09T21:08:25.251Z,10.92
2022-11-09T21:13:20.238Z,10.93
2022-11-09T21:18:14.095Z,10.95
2022-11-09T21:23:25.081Z,10.92
2022-11-09T21:28:37.424Z,10.85
2022-11-09T21:33:31.170Z,10.83
2022-11-09T21:38:27.854Z,10.84
2022-11-09T21:43:23.391Z,10.82
2022-11-09T21:48:18.479Z,10.81
2022-11-09T21:53:12.496Z,10.78
2022-11-09T21:58:10.016Z,10.78
2022-11-09T22:03:08.959Z,10.76
2022-11-09T22:08:02.585Z,10.75
2022-11-09T22:13:13.745Z,10.75
2022-11-09T22:18:32.597Z,10.78
2022-11-09T22:23:28.926Z,10.84
2022-11-09T22:28:23.836Z,10.86
2022-11-09T22:33:24.471Z,10.84
2022-11-09T22:38:20.569Z,10.80
2022-11-09T22:43:15.710Z,10.66
2022-11-09T22:48:09.084Z,10.69
2022-11-09T22:53:04.254Z,10.76
2022-11-09T22:57:58.278Z,10.75
2022-11-09T23:02:51.689Z,10.75
2022-11-09T23:07:47.020Z,10.75
2022-11-09T23:12:41.750Z,10.73
2022-11-09T23:17:54.723Z,10.65
2022-11-09T23:22:49.743Z,10.69
2022-11-09T23:27:44.797Z,10.72
2022-11-09T23:32:38.106Z,10.74
2022-11-09T23:37:31.804Z,10.71
2022-11-09T23:42:25.235Z,10.67
2022-11-09T23:47:20.263Z,10.64
2022-11-09T23:52:14.273Z,10.64
2022-11-09T23:57:08.080Z,10.66
